sensor_id;sensor_type;location;lat;lon;timestamp;pressure;altitude;pressure_sealevel;temperature;humidity
40502;BME280;29631;49.168;9.848;2023-02-03T00:01:32;97721.06;;;10.46;94.37
40502;BME280;29631;49.168;9.848;2023-02-03T00:03:58;97723.66;;;10.54;93.39
40502;BME280;29631;49.168;9.848;2023-02-03T00:06:24;97739.13;;;10.57;93.38
40502;BME280;29631;49.168;9.848;2023-02-03T00:08:54;97715.81;;;10.46;93.59
40502;BME280;29631;49.168;9.848;2023-02-03T00:11:20;97725.28;;;10.55;93.60
40502;BME280;29631;49.168;9.848;2023-02-03T00:13:46;97757.16;;;10.68;93.58
40502;BME280;29631;49.168;9.848;2023-02-03T00:16:12;97728.06;;;10.62;93.49
40502;BME280;29631;49.168;9.848;2023-02-03T00:18:37;97730.44;;;10.71;93.77
40502;BME280;29631;49.168;9.848;2023-02-03T00:21:05;97739.69;;;10.67;93.54
40502;BME280;29631;49.168;9.848;2023-02-03T00:23:31;97718.44;;;10.46;93.45
40502;BME280;29631;49.168;9.848;2023-02-03T00:26:08;97748.50;;;10.60;93.67
40502;BME280;29631;49.168;9.848;2023-02-03T00:28:35;97751.41;;;10.65;94.22
40502;BME280;29631;49.168;9.848;2023-02-03T00:31:01;97762.88;;;10.72;93.60
40502;BME280;29631;49.168;9.848;2023-02-03T00:33:27;97750.22;;;10.67;94.09
40502;BME280;29631;49.168;9.848;2023-02-03T00:35:52;97746.59;;;10.68;93.42
40502;BME280;29631;49.168;9.848;2023-02-03T00:38:18;97723.59;;;10.62;93.63
40502;BME280;29631;49.168;9.848;2023-02-03T00:40:54;97743.97;;;10.68;94.02
40502;BME280;29631;49.168;9.848;2023-02-03T00:43:20;97724.22;;;10.64;93.45
40502;BME280;29631;49.168;9.848;2023-02-03T00:45:46;97718.38;;;10.54;94.06
40502;BME280;29631;49.168;9.848;2023-02-03T00:48:12;97734.66;;;10.58;94.26
40502;BME280;29631;49.168;9.848;2023-02-03T00:50:39;97728.91;;;10.54;93.54
40502;BME280;29631;49.168;9.848;2023-02-03T00:53:05;97718.75;;;10.51;93.22
40502;BME280;29631;49.168;9.848;2023-02-03T00:55:31;97746.97;;;10.65;93.56
40502;BME280;29631;49.168;9.848;2023-02-03T00:57:56;97734.47;;;10.59;93.32
40502;BME280;29631;49.168;9.848;2023-02-03T01:00:22;97733.13;;;10.63;93.79
40502;BME280;29631;49.168;9.848;2023-02-03T01:02:48;97716.38;;;10.56;93.83
40502;BME280;29631;49.168;9.848;2023-02-03T01:05:14;97678.41;;;10.28;93.59
40502;BME280;29631;49.168;9.848;2023-02-03T01:07:39;97693.34;;;10.36;94.20
40502;BME280;29631;49.168;9.848;2023-02-03T01:10:06;97730.94;;;10.52;93.98
40502;BME280;29631;49.168;9.848;2023-02-03T01:12:32;97726.47;;;10.53;93.67
40502;BME280;29631;49.168;9.848;2023-02-03T01:14:58;97727.94;;;10.55;93.31
40502;BME280;29631;49.168;9.848;2023-02-03T01:17:24;97708.91;;;10.45;93.95
40502;BME280;29631;49.168;9.848;2023-02-03T01:19:51;97734.94;;;10.63;93.05
40502;BME280;29631;49.168;9.848;2023-02-03T01:22:17;97714.75;;;10.55;94.18
40502;BME280;29631;49.168;9.848;2023-02-03T01:24:43;97718.50;;;10.61;93.34
40502;BME280;29631;49.168;9.848;2023-02-03T01:27:09;97719.13;;;10.63;93.95
40502;BME280;29631;49.168;9.848;2023-02-03T01:29:35;97716.47;;;10.63;93.25
40502;BME280;29631;49.168;9.848;2023-02-03T01:32:01;97704.78;;;10.65;94.22
40502;BME280;29631;49.168;9.848;2023-02-03T01:34:27;97699.19;;;10.60;93.46
40502;BME280;29631;49.168;9.848;2023-02-03T01:36:53;97705.22;;;10.69;94.13
40502;BME280;29631;49.168;9.848;2023-02-03T01:39:18;97691.28;;;10.60;93.54
40502;BME280;29631;49.168;9.848;2023-02-03T01:41:44;97679.47;;;10.56;94.09
40502;BME280;29631;49.168;9.848;2023-02-03T01:44:42;97682.38;;;10.61;93.57
40502;BME280;29631;49.168;9.848;2023-02-03T01:47:52;97703.59;;;10.68;94.32
40502;BME280;29631;49.168;9.848;2023-02-03T01:50:24;97684.03;;;10.62;94.34
40502;BME280;29631;49.168;9.848;2023-02-03T01:52:57;97687.66;;;10.61;94.11
40502;BME280;29631;49.168;9.848;2023-02-03T01:55:33;97685.66;;;10.63;94.02
40502;BME280;29631;49.168;9.848;2023-02-03T01:58:19;97670.56;;;10.57;93.74
40502;BME280;29631;49.168;9.848;2023-02-03T02:00:47;97669.03;;;10.63;94.16
40502;BME280;29631;49.168;9.848;2023-02-03T02:03:14;97658.84;;;10.60;94.20
40502;BME280;29631;49.168;9.848;2023-02-03T02:05:49;97599.16;;;10.30;93.92
40502;BME280;29631;49.168;9.848;2023-02-03T02:08:16;97657.41;;;10.57;93.94
40502;BME280;29631;49.168;9.848;2023-02-03T02:10:44;97659.56;;;10.68;93.99
40502;BME280;29631;49.168;9.848;2023-02-03T02:13:10;97645.47;;;10.61;93.76
40502;BME280;29631;49.168;9.848;2023-02-03T02:22:21;97640.19;;;10.61;94.70
40502;BME280;29631;49.168;9.848;2023-02-03T02:31:05;97610.56;;;10.59;94.88
40502;BME280;29631;49.168;9.848;2023-02-03T02:34:13;97638.47;;;10.54;94.17
40502;BME280;29631;49.168;9.848;2023-02-03T02:37:10;97646.78;;;10.65;93.32
40502;BME280;29631;49.168;9.848;2023-02-03T02:40:19;97650.56;;;10.63;93.13
40502;BME280;29631;49.168;9.848;2023-02-03T02:45:51;97638.28;;;10.55;93.88
40502;BME280;29631;49.168;9.848;2023-02-03T02:48:31;97634.28;;;10.59;94.24
40502;BME280;29631;49.168;9.848;2023-02-03T02:51:03;97634.66;;;10.56;93.88
40502;BME280;29631;49.168;9.848;2023-02-03T02:53:38;97624.47;;;10.53;93.96
40502;BME280;29631;49.168;9.848;2023-02-03T02:56:08;97613.91;;;10.53;94.03
40502;BME280;29631;49.168;9.848;2023-02-03T02:58:37;97620.41;;;10.65;93.77
40502;BME280;29631;49.168;9.848;2023-02-03T03:01:07;97590.00;;;10.40;93.53
40502;BME280;29631;49.168;9.848;2023-02-03T03:03:34;97616.84;;;10.58;93.51
40502;BME280;29631;49.168;9.848;2023-02-03T03:06:04;97609.66;;;10.52;94.50
40502;BME280;29631;49.168;9.848;2023-02-03T03:09:00;97610.47;;;10.53;94.69
40502;BME280;29631;49.168;9.848;2023-02-03T03:11:32;97611.84;;;10.49;94.69
40502;BME280;29631;49.168;9.848;2023-02-03T03:14:01;97609.56;;;10.46;94.66
40502;BME280;29631;49.168;9.848;2023-02-03T03:16:33;97614.63;;;10.47;93.78
40502;BME280;29631;49.168;9.848;2023-02-03T03:19:09;97617.75;;;10.51;93.76
40502;BME280;29631;49.168;9.848;2023-02-03T03:21:46;97614.56;;;10.55;94.60
40502;BME280;29631;49.168;9.848;2023-02-03T03:24:20;97638.66;;;10.67;94.76
40502;BME280;29631;49.168;9.848;2023-02-03T03:26:55;97636.22;;;10.65;94.77
40502;BME280;29631;49.168;9.848;2023-02-03T03:29:39;97638.22;;;10.63;94.62
40502;BME280;29631;49.168;9.848;2023-02-03T03:32:06;97641.50;;;10.65;93.76
40502;BME280;29631;49.168;9.848;2023-02-03T03:34:33;97649.41;;;10.65;93.53
40502;BME280;29631;49.168;9.848;2023-02-03T03:39:56;97624.19;;;10.48;93.59
40502;BME280;29631;49.168;9.848;2023-02-03T03:42:32;97674.75;;;10.66;94.38
40502;BME280;29631;49.168;9.848;2023-02-03T03:45:13;97640.94;;;10.55;94.05
40502;BME280;29631;49.168;9.848;2023-02-03T03:48:04;97684.94;;;10.69;93.86
40502;BME280;29631;49.168;9.848;2023-02-03T03:50:52;97682.84;;;10.65;93.60
40502;BME280;29631;49.168;9.848;2023-02-03T03:53:22;97654.56;;;10.44;93.58
40502;BME280;29631;49.168;9.848;2023-02-03T03:55:50;97679.94;;;10.74;94.22
40502;BME280;29631;49.168;9.848;2023-02-03T03:58:24;97672.03;;;10.74;94.06
40502;BME280;29631;49.168;9.848;2023-02-03T04:00:55;97655.22;;;10.75;94.29
40502;BME280;29631;49.168;9.848;2023-02-03T04:03:30;97650.28;;;10.72;93.44
40502;BME280;29631;49.168;9.848;2023-02-03T04:05:57;97641.13;;;10.68;93.61
40502;BME280;29631;49.168;9.848;2023-02-03T04:08:23;97650.94;;;10.74;94.03
40502;BME280;29631;49.168;9.848;2023-02-03T04:10:48;97625.94;;;10.70;94.43
40502;BME280;29631;49.168;9.848;2023-02-03T04:13:14;97629.19;;;10.72;93.55
40502;BME280;29631;49.168;9.848;2023-02-03T04:15:40;97606.91;;;10.60;93.85
40502;BME280;29631;49.168;9.848;2023-02-03T04:18:09;97630.94;;;10.65;93.83
40502;BME280;29631;49.168;9.848;2023-02-03T04:20:36;97622.41;;;10.63;94.29
40502;BME280;29631;49.168;9.848;2023-02-03T04:23:02;97644.66;;;10.75;94.45
40502;BME280;29631;49.168;9.848;2023-02-03T04:25:27;97636.41;;;10.78;93.12
40502;BME280;29631;49.168;9.848;2023-02-03T04:27:54;97611.28;;;10.53;94.20
40502;BME280;29631;49.168;9.848;2023-02-03T04:30:19;97631.75;;;10.66;94.11
40502;BME280;29631;49.168;9.848;2023-02-03T04:32:46;97646.84;;;10.72;94.36
40502;BME280;29631;49.168;9.848;2023-02-03T04:35:12;97652.94;;;10.72;93.41
40502;BME280;29631;49.168;9.848;2023-02-03T04:37:38;97646.50;;;10.75;93.72
40502;BME280;29631;49.168;9.848;2023-02-03T04:40:05;97637.50;;;10.69;93.71
40502;BME280;29631;49.168;9.848;2023-02-03T04:42:31;97611.59;;;10.58;93.98
40502;BME280;29631;49.168;9.848;2023-02-03T04:44:57;97632.56;;;10.66;94.30
40502;BME280;29631;49.168;9.848;2023-02-03T04:47:22;97626.84;;;10.63;94.76
40502;BME280;29631;49.168;9.848;2023-02-03T04:49:48;97631.28;;;10.62;94.41
40502;BME280;29631;49.168;9.848;2023-02-03T04:52:14;97618.19;;;10.54;93.79
40502;BME280;29631;49.168;9.848;2023-02-03T04:54:40;97606.91;;;10.60;93.83
40502;BME280;29631;49.168;9.848;2023-02-03T04:57:05;97598.81;;;10.47;94.49
40502;BME280;29631;49.168;9.848;2023-02-03T04:59:32;97631.66;;;10.59;94.39
40502;BME280;29631;49.168;9.848;2023-02-03T05:01:58;97643.50;;;10.63;94.70
40502;BME280;29631;49.168;9.848;2023-02-03T05:04:25;97627.19;;;10.45;94.58
40502;BME280;29631;49.168;9.848;2023-02-03T05:06:51;97568.91;;;10.12;94.74
40502;BME280;29631;49.168;9.848;2023-02-03T05:09:17;97639.66;;;10.51;94.88
40502;BME280;29631;49.168;9.848;2023-02-03T05:11:43;97618.47;;;10.45;94.90
40502;BME280;29631;49.168;9.848;2023-02-03T05:14:08;97582.00;;;10.19;93.92
40502;BME280;29631;49.168;9.848;2023-02-03T05:16:34;97630.75;;;10.52;94.05
40502;BME280;29631;49.168;9.848;2023-02-03T05:19:00;97636.91;;;10.59;94.78
40502;BME280;29631;49.168;9.848;2023-02-03T05:21:25;97659.97;;;10.65;95.29
40502;BME280;29631;49.168;9.848;2023-02-03T05:23:51;97664.94;;;10.60;95.01
40502;BME280;29631;49.168;9.848;2023-02-03T05:26:17;97652.13;;;10.57;95.01
40502;BME280;29631;49.168;9.848;2023-02-03T05:28:42;97649.81;;;10.54;95.05
40502;BME280;29631;49.168;9.848;2023-02-03T05:31:08;97659.31;;;10.63;94.47
40502;BME280;29631;49.168;9.848;2023-02-03T05:33:34;97640.19;;;10.61;94.19
40502;BME280;29631;49.168;9.848;2023-02-03T05:36:00;97644.03;;;10.59;95.38
40502;BME280;29631;49.168;9.848;2023-02-03T05:38:25;97645.03;;;10.58;95.33
40502;BME280;29631;49.168;9.848;2023-02-03T05:40:51;97639.84;;;10.64;95.13
40502;BME280;29631;49.168;9.848;2023-02-03T05:43:36;97630.75;;;10.52;94.66
40502;BME280;29631;49.168;9.848;2023-02-03T05:46:04;97654.75;;;10.57;94.86
40502;BME280;29631;49.168;9.848;2023-02-03T05:48:30;97670.19;;;10.60;94.69
40502;BME280;29631;49.168;9.848;2023-02-03T05:50:56;97656.75;;;10.55;95.45
40502;BME280;29631;49.168;9.848;2023-02-03T05:53:22;97664.94;;;10.60;95.68
40502;BME280;29631;49.168;9.848;2023-02-03T05:55:48;97666.56;;;10.61;95.45
40502;BME280;29631;49.168;9.848;2023-02-03T05:58:14;97675.47;;;10.60;95.65
40502;BME280;29631;49.168;9.848;2023-02-03T06:00:40;97675.13;;;10.63;95.84
40502;BME280;29631;49.168;9.848;2023-02-03T06:03:06;97647.56;;;10.51;95.29
40502;BME280;29631;49.168;9.848;2023-02-03T06:05:33;97647.84;;;10.56;95.03
40502;BME280;29631;49.168;9.848;2023-02-03T06:08:00;97633.09;;;10.47;95.07
40502;BME280;29631;49.168;9.848;2023-02-03T06:10:26;97602.25;;;10.33;94.97
40502;BME280;29631;49.168;9.848;2023-02-03T06:12:52;97618.84;;;10.42;95.65
40502;BME280;29631;49.168;9.848;2023-02-03T06:15:18;97604.56;;;10.36;95.78
40502;BME280;29631;49.168;9.848;2023-02-03T06:17:48;97601.63;;;10.31;95.45
40502;BME280;29631;49.168;9.848;2023-02-03T06:20:17;97600.19;;;10.29;95.95
40502;BME280;29631;49.168;9.848;2023-02-03T06:22:43;97606.19;;;10.37;95.90
40502;BME280;29631;49.168;9.848;2023-02-03T06:25:09;97605.72;;;10.34;95.81
40502;BME280;29631;49.168;9.848;2023-02-03T06:27:36;97606.72;;;10.18;95.80
40502;BME280;29631;49.168;9.848;2023-02-03T06:30:03;97598.72;;;10.26;96.61
40502;BME280;29631;49.168;9.848;2023-02-03T06:32:28;97603.16;;;10.26;95.90
40502;BME280;29631;49.168;9.848;2023-02-03T06:34:54;97595.44;;;10.24;95.47
40502;BME280;29631;49.168;9.848;2023-02-03T06:37:20;97609.81;;;10.36;95.77
40502;BME280;29631;49.168;9.848;2023-02-03T06:39:46;97612.19;;;10.31;96.37
40502;BME280;29631;49.168;9.848;2023-02-03T06:42:11;97616.34;;;10.40;95.87
40502;BME280;29631;49.168;9.848;2023-02-03T06:44:37;97596.00;;;10.34;96.18
40502;BME280;29631;49.168;9.848;2023-02-03T06:47:03;97605.47;;;10.43;95.29
40502;BME280;29631;49.168;9.848;2023-02-03T06:49:29;97586.03;;;10.44;95.80
40502;BME280;29631;49.168;9.848;2023-02-03T06:51:55;97597.19;;;10.46;95.55
40502;BME280;29631;49.168;9.848;2023-02-03T06:54:21;97570.75;;;10.25;95.96
40502;BME280;29631;49.168;9.848;2023-02-03T06:56:47;97604.63;;;10.43;96.31
40502;BME280;29631;49.168;9.848;2023-02-03T06:59:12;97604.28;;;10.46;96.00
40502;BME280;29631;49.168;9.848;2023-02-03T07:01:38;97600.19;;;10.43;95.85
40502;BME280;29631;49.168;9.848;2023-02-03T07:04:05;97601.84;;;10.44;96.32
40502;BME280;29631;49.168;9.848;2023-02-03T07:06:31;97598.28;;;10.37;96.39
40502;BME280;29631;49.168;9.848;2023-02-03T07:09:00;97580.19;;;10.34;95.47
40502;BME280;29631;49.168;9.848;2023-02-03T07:11:27;97593.41;;;10.49;96.22
40502;BME280;29631;49.168;9.848;2023-02-03T07:13:53;97593.28;;;10.42;96.70
40502;BME280;29631;49.168;9.848;2023-02-03T07:16:19;97587.66;;;10.45;96.69
40502;BME280;29631;49.168;9.848;2023-02-03T07:18:46;97572.56;;;10.39;95.96
40502;BME280;29631;49.168;9.848;2023-02-03T07:21:12;97604.19;;;10.39;96.61
40502;BME280;29631;49.168;9.848;2023-02-03T07:23:38;97613.72;;;10.40;96.42
40502;BME280;29631;49.168;9.848;2023-02-03T07:26:06;97608.09;;;10.43;96.15
40502;BME280;29631;49.168;9.848;2023-02-03T07:28:33;97605.81;;;10.40;95.45
40502;BME280;29631;49.168;9.848;2023-02-03T07:30:59;97601.56;;;10.39;95.50
40502;BME280;29631;49.168;9.848;2023-02-03T07:33:26;97609.03;;;10.50;96.12
40502;BME280;29631;49.168;9.848;2023-02-03T07:35:53;97605.47;;;10.43;96.03
40502;BME280;29631;49.168;9.848;2023-02-03T07:38:20;97593.19;;;10.36;95.55
40502;BME280;29631;49.168;9.848;2023-02-03T07:40:46;97615.28;;;10.49;95.03
40502;BME280;29631;49.168;9.848;2023-02-03T07:43:12;97613.19;;;10.45;95.27
40502;BME280;29631;49.168;9.848;2023-02-03T07:45:38;97605.81;;;10.40;95.37
40502;BME280;29631;49.168;9.848;2023-02-03T07:48:04;97620.81;;;10.40;95.83
40502;BME280;29631;49.168;9.848;2023-02-03T07:50:29;97633.75;;;10.49;96.20
40502;BME280;29631;49.168;9.848;2023-02-03T07:52:55;97638.38;;;10.47;95.95
40502;BME280;29631;49.168;9.848;2023-02-03T07:55:21;97632.16;;;10.40;95.89
40502;BME280;29631;49.168;9.848;2023-02-03T07:57:47;97664.38;;;10.50;96.43
40502;BME280;29631;49.168;9.848;2023-02-03T08:00:15;97664.72;;;10.47;95.93
40502;BME280;29631;49.168;9.848;2023-02-03T08:02:42;97624.91;;;10.42;95.49
40502;BME280;29631;49.168;9.848;2023-02-03T08:05:08;97634.84;;;10.55;96.24
40502;BME280;29631;49.168;9.848;2023-02-03T08:07:34;97634.38;;;10.51;95.18
40502;BME280;29631;49.168;9.848;2023-02-03T08:10:00;97646.56;;;10.52;96.05
40502;BME280;29631;49.168;9.848;2023-02-03T08:12:26;97620.81;;;10.40;95.77
40502;BME280;29631;49.168;9.848;2023-02-03T08:14:52;97651.38;;;10.49;96.35
40502;BME280;29631;49.168;9.848;2023-02-03T08:17:17;97657.94;;;10.53;95.30
40502;BME280;29631;49.168;9.848;2023-02-03T08:19:43;97638.38;;;10.47;96.29
40502;BME280;29631;49.168;9.848;2023-02-03T08:22:09;97633.34;;;10.38;95.47
40502;BME280;29631;49.168;9.848;2023-02-03T08:24:41;97632.63;;;10.44;96.07
40502;BME280;29631;49.168;9.848;2023-02-03T08:27:14;97669.06;;;10.40;96.25
40502;BME280;29631;49.168;9.848;2023-02-03T08:29:40;97618.50;;;10.22;95.53
40502;BME280;29631;49.168;9.848;2023-02-03T08:32:11;97634.06;;;10.32;95.88
40502;BME280;29631;49.168;9.848;2023-02-03T08:34:37;97649.63;;;10.41;96.04
40502;BME280;29631;49.168;9.848;2023-02-03T08:37:04;97654.19;;;10.47;95.74
40502;BME280;29631;49.168;9.848;2023-02-03T08:39:32;97638.28;;;10.41;96.58
40502;BME280;29631;49.168;9.848;2023-02-03T08:41:58;97619.38;;;10.37;96.44
40502;BME280;29631;49.168;9.848;2023-02-03T08:44:24;97636.19;;;10.36;95.61
40502;BME280;29631;49.168;9.848;2023-02-03T08:46:51;97647.19;;;10.40;96.04
40502;BME280;29631;49.168;9.848;2023-02-03T08:49:18;97639.81;;;10.35;95.81
40502;BME280;29631;49.168;9.848;2023-02-03T08:51:47;97635.47;;;10.42;96.15
40502;BME280;29631;49.168;9.848;2023-02-03T08:54:14;97631.81;;;10.43;96.62
40502;BME280;29631;49.168;9.848;2023-02-03T08:56:40;97636.19;;;10.36;96.78
40502;BME280;29631;49.168;9.848;2023-02-03T08:59:06;97639.47;;;10.38;95.82
40502;BME280;29631;49.168;9.848;2023-02-03T09:01:34;97631.81;;;10.43;96.45
40502;BME280;29631;49.168;9.848;2023-02-03T09:03:59;97615.44;;;10.33;96.11
40502;BME280;29631;49.168;9.848;2023-02-03T09:06:29;97644.94;;;10.51;96.59
40502;BME280;29631;49.168;9.848;2023-02-03T09:08:55;97636.38;;;10.49;95.76
40502;BME280;29631;49.168;9.848;2023-02-03T09:11:22;97626.56;;;10.43;95.62
40502;BME280;29631;49.168;9.848;2023-02-03T09:13:48;97656.56;;;10.57;96.11
40502;BME280;29631;49.168;9.848;2023-02-03T09:16:17;97650.09;;;10.59;95.90
40502;BME280;29631;49.168;9.848;2023-02-03T09:18:44;97647.38;;;10.53;95.59
40502;BME280;29631;49.168;9.848;2023-02-03T09:21:11;97655.09;;;10.54;96.12
40502;BME280;29631;49.168;9.848;2023-02-03T09:23:38;97640.28;;;10.53;96.26
40502;BME280;29631;49.168;9.848;2023-02-03T09:26:07;97635.25;;;10.44;95.60
40502;BME280;29631;49.168;9.848;2023-02-03T09:28:33;97649.81;;;10.54;96.04
40502;BME280;29631;49.168;9.848;2023-02-03T09:31:14;97653.13;;;10.56;96.67
40502;BME280;29631;49.168;9.848;2023-02-03T09:33:42;97650.47;;;10.56;96.13
40502;BME280;29631;49.168;9.848;2023-02-03T09:36:09;97637.81;;;10.52;95.96
40502;BME280;29631;49.168;9.848;2023-02-03T09:38:35;97614.03;;;10.45;96.78
40502;BME280;29631;49.168;9.848;2023-02-03T09:44:06;97640.56;;;10.58;96.83
40502;BME280;29631;49.168;9.848;2023-02-03T09:46:46;97642.66;;;10.63;96.33
40502;BME280;29631;49.168;9.848;2023-02-03T09:52:24;97632.47;;;10.60;96.80
40502;BME280;29631;49.168;9.848;2023-02-03T09:55:01;97656.59;;;10.71;96.00
40502;BME280;29631;49.168;9.848;2023-02-03T09:57:51;97627.47;;;10.65;96.53
40502;BME280;29631;49.168;9.848;2023-02-03T10:00:35;97642.75;;;10.69;96.95
40502;BME280;29631;49.168;9.848;2023-02-03T10:06:48;97652.59;;;10.75;95.59
40502;BME280;29631;49.168;9.848;2023-02-03T10:09:29;97651.78;;;10.75;95.70
40502;BME280;29631;49.168;9.848;2023-02-03T10:17:45;97662.41;;;10.81;96.26
40502;BME280;29631;49.168;9.848;2023-02-03T10:22:53;97645.78;;;10.81;96.34
40502;BME280;29631;49.168;9.848;2023-02-03T10:25:39;97657.94;;;10.82;96.26
40502;BME280;29631;49.168;9.848;2023-02-03T10:28:30;97653.84;;;10.79;95.57
40502;BME280;29631;49.168;9.848;2023-02-03T10:31:00;97627.84;;;10.76;96.58
40502;BME280;29631;49.168;9.848;2023-02-03T10:33:28;97652.78;;;10.88;95.77
40502;BME280;29631;49.168;9.848;2023-02-03T10:39:11;97661.34;;;10.90;96.01
40502;BME280;29631;49.168;9.848;2023-02-03T10:41:41;97636.59;;;10.91;95.65
40502;BME280;29631;49.168;9.848;2023-02-03T10:44:10;97615.09;;;10.94;96.26
40502;BME280;29631;49.168;9.848;2023-02-03T10:46:38;97631.84;;;11.01;96.28
40502;BME280;29631;49.168;9.848;2023-02-03T10:49:04;97622.94;;;11.02;95.83
40502;BME280;29631;49.168;9.848;2023-02-03T10:51:46;97630.19;;;11.00;95.53
40502;BME280;29631;49.168;9.848;2023-02-03T10:54:34;97605.47;;;11.01;95.83
40502;BME280;29631;49.168;9.848;2023-02-03T10:57:13;97597.53;;;11.01;95.36
40502;BME280;29631;49.168;9.848;2023-02-03T10:59:46;97598.19;;;11.03;95.79
40502;BME280;29631;49.168;9.848;2023-02-03T11:02:29;97588.00;;;11.00;95.24
40502;BME280;29631;49.168;9.848;2023-02-03T11:07:40;97589.63;;;11.01;95.90
40502;BME280;29631;49.168;9.848;2023-02-03T11:10:36;97583.44;;;10.94;95.17
40502;BME280;29631;49.168;9.848;2023-02-03T11:16:02;97585.53;;;10.98;95.62
40502;BME280;29631;49.168;9.848;2023-02-03T11:18:57;97598.19;;;11.03;95.90
40502;BME280;29631;49.168;9.848;2023-02-03T11:26:54;97576.44;;;11.01;95.98
40502;BME280;29631;49.168;9.848;2023-02-03T11:29:28;97562.34;;;10.94;94.76
40502;BME280;29631;49.168;9.848;2023-02-03T11:32:00;97577.97;;;11.10;95.06
40502;BME280;29631;49.168;9.848;2023-02-03T11:34:34;97568.22;;;11.10;95.56
40502;BME280;29631;49.168;9.848;2023-02-03T11:37:36;97567.69;;;11.15;95.18
40502;BME280;29631;49.168;9.848;2023-02-03T11:45:49;97568.03;;;11.12;96.07
40502;BME280;29631;49.168;9.848;2023-02-03T11:48:25;97560.13;;;11.12;95.42
40502;BME280;29631;49.168;9.848;2023-02-03T11:51:20;97545.47;;;11.09;96.15
40502;BME280;29631;49.168;9.848;2023-02-03T12:00:14;97544.78;;;11.01;96.11
40502;BME280;29631;49.168;9.848;2023-02-03T12:08:57;97510.84;;;10.98;96.23
40502;BME280;29631;49.168;9.848;2023-02-03T12:12:05;97503.66;;;10.92;95.67
40502;BME280;29631;49.168;9.848;2023-02-03T12:21:02;97507.44;;;10.83;95.64
40502;BME280;29631;49.168;9.848;2023-02-03T12:29:21;97503.25;;;10.74;95.62
40502;BME280;29631;49.168;9.848;2023-02-03T12:40:44;97499.53;;;10.69;96.47
40502;BME280;29631;49.168;9.848;2023-02-03T12:46:29;97506.34;;;10.78;96.93
40502;BME280;29631;49.168;9.848;2023-02-03T12:49:01;97512.88;;;10.82;97.38
40502;BME280;29631;49.168;9.848;2023-02-03T12:51:56;97511.19;;;10.74;97.41
40502;BME280;29631;49.168;9.848;2023-02-03T12:54:48;97502.53;;;10.80;96.83
40502;BME280;29631;49.168;9.848;2023-02-03T12:57:46;97482.16;;;10.74;96.98
40502;BME280;29631;49.168;9.848;2023-02-03T13:00:59;97493.59;;;10.81;97.43
40502;BME280;29631;49.168;9.848;2023-02-03T13:03:45;97480.53;;;10.73;97.50
40502;BME280;29631;49.168;9.848;2023-02-03T13:06:40;97479.63;;;10.81;97.74
40502;BME280;29631;49.168;9.848;2023-02-03T13:09:48;97459.06;;;10.76;96.36
40502;BME280;29631;49.168;9.848;2023-02-03T13:12:44;97447.63;;;10.69;96.72
40502;BME280;29631;49.168;9.848;2023-02-03T13:18:02;97440.72;;;10.68;96.74
40502;BME280;29631;49.168;9.848;2023-02-03T13:20:32;97411.47;;;10.63;96.45
40502;BME280;29631;49.168;9.848;2023-02-03T13:23:06;97398.09;;;10.65;97.47
40502;BME280;29631;49.168;9.848;2023-02-03T13:32:09;97441.63;;;10.75;96.62
40502;BME280;29631;49.168;9.848;2023-02-03T13:41:17;97457.44;;;10.75;97.87
40502;BME280;29631;49.168;9.848;2023-02-03T13:43:49;97453.81;;;10.76;97.38
40502;BME280;29631;49.168;9.848;2023-02-03T13:46:28;97461.06;;;10.74;97.84
40502;BME280;29631;49.168;9.848;2023-02-03T13:48:59;97473.50;;;10.80;96.96
40502;BME280;29631;49.168;9.848;2023-02-03T13:51:41;97460.53;;;10.79;97.29
40502;BME280;29631;49.168;9.848;2023-02-03T13:54:37;97448.53;;;10.76;97.84
40502;BME280;29631;49.168;9.848;2023-02-03T13:57:34;97445.06;;;10.76;97.42
40502;BME280;29631;49.168;9.848;2023-02-03T14:00:06;97455.78;;;10.74;96.76
40502;BME280;29631;49.168;9.848;2023-02-03T14:02:53;97434.66;;;10.68;97.71
40502;BME280;29631;49.168;9.848;2023-02-03T14:05:43;97442.84;;;10.79;98.31
40502;BME280;29631;49.168;9.848;2023-02-03T14:22:04;97445.63;;;10.71;97.76
40502;BME280;29631;49.168;9.848;2023-02-03T14:24:37;97438.34;;;10.73;97.64
40502;BME280;29631;49.168;9.848;2023-02-03T14:27:16;97439.09;;;10.67;98.09
40502;BME280;29631;49.168;9.848;2023-02-03T14:29:43;97430.63;;;10.72;98.30
40502;BME280;29631;49.168;9.848;2023-02-03T14:32:11;97437.72;;;10.71;97.99
40502;BME280;29631;49.168;9.848;2023-02-03T14:34:43;97421.13;;;10.56;98.48
40502;BME280;29631;49.168;9.848;2023-02-03T14:37:29;97426.91;;;10.66;98.94
40502;BME280;29631;49.168;9.848;2023-02-03T14:40:32;97439.97;;;10.74;97.90
40502;BME280;29631;49.168;9.848;2023-02-03T14:46:51;97431.06;;;10.75;98.45
40502;BME280;29631;49.168;9.848;2023-02-03T14:49:31;97422.16;;;10.76;98.42
40502;BME280;29631;49.168;9.848;2023-02-03T15:07:57;97427.94;;;10.65;98.92
40502;BME280;29631;49.168;9.848;2023-02-03T15:10:41;97447.88;;;10.74;98.50
40502;BME280;29631;49.168;9.848;2023-02-03T15:13:43;97458.31;;;10.82;98.90
40502;BME280;29631;49.168;9.848;2023-02-03T15:16:15;97459.56;;;10.86;99.02
40502;BME280;29631;49.168;9.848;2023-02-03T15:18:42;97459.22;;;10.89;98.35
40502;BME280;29631;49.168;9.848;2023-02-03T15:21:19;97444.94;;;10.83;98.81
40502;BME280;29631;49.168;9.848;2023-02-03T15:23:46;97450.84;;;10.85;98.32
40502;BME280;29631;49.168;9.848;2023-02-03T15:26:19;97449.78;;;10.80;98.08
40502;BME280;29631;49.168;9.848;2023-02-03T15:28:59;97444.59;;;10.86;98.86
40502;BME280;29631;49.168;9.848;2023-02-03T15:31:42;97451.06;;;10.84;98.20
40502;BME280;29631;49.168;9.848;2023-02-03T15:34:36;97463.22;;;10.85;99.26
40502;BME280;29631;49.168;9.848;2023-02-03T15:37:16;97458.97;;;10.84;98.22
40502;BME280;29631;49.168;9.848;2023-02-03T15:43:01;97439.63;;;10.77;98.48
40502;BME280;29631;49.168;9.848;2023-02-03T15:45:37;97454.06;;;10.81;98.61
40502;BME280;29631;49.168;9.848;2023-02-03T15:48:44;97445.78;;;10.84;100.00
40502;BME280;29631;49.168;9.848;2023-02-03T15:51:52;97448.13;;;10.79;99.72